createdAt,value
2017-05-24T11:35:27.786Z,18.60
2017-05-24T11:37:56.812Z,19.00
2017-05-24T11:40:26.129Z,19.40
2017-05-24T11:42:55.363Z,19.80
2017-05-24T11:45:24.451Z,20.10
2017-05-24T11:47:53.476Z,20.30
2017-05-24T11:50:22.794Z,20.50
2017-05-24T11:52:51.829Z,20.70
2017-05-24T11:55:20.882Z,20.90
2017-05-24T11:57:49.962Z,21.10
2017-05-24T12:00:18.990Z,21.30
2017-05-24T12:02:48.206Z,21.30
2017-05-24T12:05:17.380Z,21.40
2017-05-24T12:07:46.419Z,21.50
2017-05-24T12:10:15.424Z,21.60
2017-05-24T12:12:45.218Z,21.60
2017-05-24T12:15:14.267Z,21.60
2017-05-24T12:17:43.596Z,21.60
2017-05-24T12:20:12.734Z,21.50
2017-05-24T12:22:41.787Z,21.40
2017-05-24T12:25:10.830Z,21.30
2017-05-24T12:27:39.866Z,21.30
2017-05-24T12:30:08.895Z,21.30
2017-05-24T12:32:37.928Z,21.30
2017-05-24T12:35:07.825Z,21.40
2017-05-24T12:37:36.866Z,21.40
2017-05-24T12:40:05.927Z,21.40
2017-05-24T12:42:35.424Z,21.30
2017-05-24T12:45:04.461Z,21.30
2017-05-24T12:47:33.480Z,21.20
2017-05-24T12:50:02.621Z,21.30
2017-05-24T12:52:31.631Z,21.30
2017-05-24T12:55:00.668Z,21.40
2017-05-24T12:57:29.745Z,21.50
2017-05-24T12:59:58.815Z,21.50
2017-05-24T13:02:27.830Z,21.50
2017-05-24T13:04:56.890Z,21.50
2017-05-24T13:07:25.930Z,21.50
2017-05-24T13:09:55.091Z,21.40
2017-05-24T13:12:24.148Z,21.40
2017-05-24T13:14:53.217Z,21.40
2017-05-24T13:17:22.239Z,21.50
2017-05-24T13:19:51.741Z,21.50
2017-05-24T13:22:20.020Z,21.50
2017-05-24T13:24:49.143Z,21.50
2017-05-24T13:27:18.214Z,21.60
2017-05-24T13:29:47.249Z,21.70
2017-05-24T13:32:16.270Z,21.70
2017-05-24T13:34:45.338Z,21.80
2017-05-24T13:37:14.364Z,21.90
2017-05-24T13:39:43.513Z,21.90
2017-05-24T13:42:12.556Z,21.90
2017-05-24T13:44:41.589Z,22.00
2017-05-24T13:47:10.637Z,21.90
2017-05-24T13:49:39.687Z,21.90
2017-05-24T13:52:08.726Z,21.90
2017-05-24T13:54:37.759Z,21.90
2017-05-24T13:57:06.933Z,22.00
2017-05-24T13:59:36.392Z,21.90
2017-05-24T14:02:05.406Z,22.00
2017-05-24T14:04:34.424Z,22.10
2017-05-24T14:07:03.432Z,22.10
2017-05-24T14:09:32.555Z,22.10
2017-05-24T14:12:01.570Z,22.30
2017-05-24T14:14:30.599Z,22.40
2017-05-24T14:16:59.617Z,22.50
2017-05-24T14:19:28.807Z,22.40
2017-05-24T14:21:57.839Z,22.30
2017-05-24T14:24:26.837Z,22.30
2017-05-24T14:26:55.900Z,22.30
2017-05-24T14:29:24.918Z,22.30
2017-05-24T14:31:53.928Z,22.40
2017-05-24T14:34:23.266Z,22.40
2017-05-24T14:36:52.298Z,22.40
2017-05-24T14:39:21.312Z,22.40
2017-05-24T14:41:50.386Z,22.40
2017-05-24T14:44:19.411Z,22.40
2017-05-24T14:46:48.430Z,22.30
2017-05-24T14:49:17.512Z,22.40
2017-05-24T14:51:46.532Z,22.40
2017-05-24T14:54:15.574Z,22.40
2017-05-24T14:56:44.628Z,22.40
2017-05-24T14:59:13.650Z,22.40
2017-05-24T15:01:42.664Z,22.30
2017-05-24T15:04:11.740Z,22.30
2017-05-24T15:06:40.771Z,22.30
2017-05-24T15:09:09.805Z,22.30
2017-05-24T15:11:39.227Z,22.30
2017-05-24T15:14:08.254Z,22.40
2017-05-24T15:16:37.277Z,22.30
2017-05-24T15:19:06.679Z,22.30
2017-05-24T15:21:35.692Z,22.30
2017-05-24T15:24:04.832Z,22.30
2017-05-24T15:26:33.137Z,22.30
2017-05-24T15:29:02.147Z,22.50
2017-05-24T15:31:31.179Z,22.60
2017-05-24T15:34:00.326Z,22.60
2017-05-24T15:36:29.365Z,22.60
2017-05-24T15:38:59.197Z,22.70
2017-05-24T15:41:28.250Z,22.70
2017-05-24T15:43:57.259Z,22.70
2017-05-24T15:46:26.296Z,22.70
2017-05-24T15:48:55.993Z,22.70
2017-05-24T15:51:25.007Z,22.70
2017-05-24T15:53:54.018Z,22.90
2017-05-24T15:56:23.119Z,22.90
2017-05-24T15:58:52.117Z,22.90
2017-05-24T16:01:21.134Z,22.80
2017-05-24T16:03:50.228Z,22.80
2017-05-24T16:06:19.258Z,22.90
2017-05-24T16:08:48.261Z,22.80
2017-05-24T16:11:17.321Z,22.80
2017-05-24T16:13:46.340Z,22.80
2017-05-24T16:16:15.368Z,22.80
2017-05-24T16:18:44.457Z,22.80
2017-05-24T16:21:13.523Z,22.90
2017-05-24T16:23:42.546Z,22.90
2017-05-24T16:26:11.670Z,22.90
2017-05-24T16:28:40.698Z,22.80
2017-05-24T16:31:09.737Z,22.80
2017-05-24T16:33:39.060Z,22.80
2017-05-24T16:36:08.115Z,22.80
2017-05-24T16:38:37.151Z,22.80
2017-05-24T16:41:06.507Z,22.70
2017-05-24T16:43:35.509Z,22.70
2017-05-24T16:46:04.565Z,22.80
2017-05-24T16:48:33.693Z,22.80
2017-05-24T16:51:02.734Z,22.80
2017-05-24T16:53:31.817Z,22.70
2017-05-24T16:56:01.139Z,22.70
2017-05-24T16:58:30.177Z,22.70
2017-05-24T17:00:59.236Z,22.80
2017-05-24T17:03:28.628Z,22.70
2017-05-24T17:05:57.661Z,22.60
2017-05-24T17:08:26.682Z,22.60
2017-05-24T17:10:55.733Z,22.60
2017-05-24T17:13:24.778Z,22.60
2017-05-24T17:15:54.879Z,22.60
2017-05-24T17:18:24.145Z,22.60
2017-05-24T17:20:53.710Z,22.60
2017-05-24T17:23:23.793Z,22.70
2017-05-24T17:25:53.315Z,22.70
2017-05-24T17:28:22.429Z,22.70
2017-05-24T17:30:52.284Z,22.80
2017-05-24T17:33:21.363Z,22.70
2017-05-24T17:35:50.447Z,22.60
2017-05-24T17:38:19.558Z,22.60
2017-05-24T17:40:48.756Z,22.60
2017-05-24T17:43:17.959Z,22.60
2017-05-24T17:45:47.020Z,22.50
2017-05-24T17:48:16.121Z,22.50
2017-05-24T17:50:45.362Z,22.40
2017-05-24T17:53:14.437Z,22.40
2017-05-24T17:55:43.627Z,22.30
2017-05-24T17:58:12.815Z,22.20
2017-05-24T18:00:42.753Z,22.20
2017-05-24T18:03:12.740Z,22.20
2017-05-24T18:05:41.777Z,22.20
2017-05-24T18:08:10.832Z,22.20
2017-05-24T18:10:40.019Z,22.30
2017-05-24T18:13:09.155Z,22.30
2017-05-24T18:15:38.254Z,22.20
2017-05-24T18:18:07.302Z,22.10
2017-05-24T18:20:37.228Z,22.10
2017-05-24T18:23:06.328Z,22.20
2017-05-24T18:25:35.359Z,22.10
2017-05-24T18:28:04.445Z,22.10
2017-05-24T18:30:33.477Z,22.20
2017-05-24T18:33:02.526Z,22.20
2017-05-24T18:35:31.579Z,22.20
2017-05-24T18:38:00.648Z,22.10
2017-05-24T18:40:29.680Z,22.10
2017-05-24T18:42:59.574Z,22.00
2017-05-24T18:45:28.638Z,21.90
2017-05-24T18:47:57.686Z,21.90
2017-05-24T18:50:26.741Z,21.80
2017-05-24T18:52:55.992Z,21.80
2017-05-24T18:55:25.112Z,21.70
2017-05-24T18:57:54.280Z,21.60
2017-05-24T19:00:24.343Z,21.60
2017-05-24T19:02:53.384Z,21.50
2017-05-24T19:05:22.668Z,21.40
2017-05-24T19:07:51.710Z,21.30
2017-05-24T19:10:20.921Z,21.30
2017-05-24T19:12:49.971Z,21.30
2017-05-24T19:15:19.012Z,21.20
2017-05-24T19:17:48.131Z,21.20
2017-05-24T19:20:17.156Z,21.10
2017-05-24T19:22:46.236Z,21.10
2017-05-24T19:25:15.334Z,21.10
2017-05-24T19:27:44.478Z,21.10
2017-05-24T19:30:13.538Z,21.10
2017-05-24T19:32:42.724Z,21.10
2017-05-24T19:35:12.034Z,21.00
2017-05-24T19:37:41.088Z,21.00
2017-05-24T19:40:10.264Z,21.00
2017-05-24T19:42:39.291Z,20.90
2017-05-24T19:45:08.335Z,20.90
2017-05-24T19:47:39.894Z,20.90
2017-05-24T19:50:09.481Z,20.80
2017-05-24T19:52:38.550Z,20.80
2017-05-24T19:55:08.454Z,20.80
2017-05-24T19:57:37.733Z,20.70
2017-05-24T20:00:06.754Z,20.70
2017-05-24T20:02:37.655Z,20.70
2017-05-24T20:05:06.768Z,20.60
2017-05-24T20:07:35.913Z,20.60
2017-05-24T20:10:04.945Z,20.60
2017-05-24T20:12:34.345Z,20.50
2017-05-24T20:15:03.403Z,20.60
2017-05-24T20:17:32.494Z,20.50
2017-05-24T20:20:01.735Z,20.50
2017-05-24T20:22:30.880Z,20.50
2017-05-24T20:24:59.939Z,20.40
2017-05-24T20:27:29.178Z,20.40
2017-05-24T20:29:59.092Z,20.50
2017-05-24T20:32:28.855Z,20.50
2017-05-24T20:34:57.913Z,20.40
2017-05-24T20:37:26.934Z,20.40
2017-05-24T20:39:56.616Z,20.30
2017-05-24T20:42:25.780Z,20.20
2017-05-24T20:44:54.828Z,20.20
2017-05-24T20:47:23.893Z,20.20
2017-05-24T20:49:52.934Z,20.20
2017-05-24T20:52:22.730Z,20.10
2017-05-24T20:54:52.282Z,20.10
2017-05-24T20:57:21.567Z,20.00
2017-05-24T20:59:50.625Z,20.00
2017-05-24T21:02:20.003Z,20.00
2017-05-24T21:04:49.149Z,20.10
2017-05-24T21:07:18.465Z,20.10
2017-05-24T21:09:47.504Z,20.10
2017-05-24T21:12:17.248Z,20.10
2017-05-24T21:14:46.276Z,20.10
2017-05-24T21:17:15.308Z,20.00
2017-05-24T21:19:44.348Z,19.90
2017-05-24T21:22:13.426Z,19.80
2017-05-24T21:24:42.485Z,19.70
2017-05-24T21:27:11.518Z,19.70
2017-05-24T21:29:40.564Z,19.70
2017-05-24T21:32:09.582Z,19.80
2017-05-24T21:34:38.599Z,19.90
2017-05-24T21:37:07.688Z,19.80
2017-05-24T21:39:36.795Z,19.80
2017-05-24T21:42:05.830Z,19.80
2017-05-24T21:44:35.239Z,19.70
2017-05-24T21:47:04.283Z,19.60
2017-05-24T21:49:33.368Z,19.60
2017-05-24T21:52:02.674Z,19.60
2017-05-24T21:54:31.713Z,19.50
2017-05-24T21:57:01.048Z,19.50
2017-05-24T21:59:30.503Z,19.50
2017-05-24T22:01:59.511Z,19.50
2017-05-24T22:05:47.277Z,19.40
2017-05-24T22:08:16.301Z,19.40
2017-05-24T22:10:45.353Z,19.40
2017-05-24T22:13:14.409Z,19.40
2017-05-24T22:15:43.422Z,19.40
2017-05-24T22:18:12.472Z,19.40
2017-05-24T22:20:41.509Z,19.40
2017-05-24T22:23:10.679Z,19.40
2017-05-24T22:25:39.701Z,19.30
2017-05-24T22:28:08.745Z,19.30
2017-05-24T22:30:37.749Z,19.30
2017-05-24T22:33:06.776Z,19.30
2017-05-24T22:35:35.820Z,19.40
2017-05-24T22:38:04.821Z,19.40
2017-05-24T22:40:33.829Z,19.50
2017-05-24T22:43:02.863Z,19.70
2017-05-24T22:45:31.903Z,19.70
2017-05-24T22:48:00.928Z,19.70
2017-05-24T22:50:29.946Z,19.70
2017-05-24T22:52:58.974Z,19.50
2017-05-24T22:55:28.016Z,19.50
2017-05-24T22:57:57.055Z,19.40
2017-05-24T23:00:26.088Z,19.30
2017-05-24T23:02:55.110Z,19.40
2017-05-24T23:05:24.132Z,19.40
2017-05-24T23:07:53.159Z,19.50
2017-05-24T23:10:22.184Z,19.50
2017-05-24T23:12:51.225Z,19.60
2017-05-24T23:15:20.246Z,19.50
2017-05-24T23:17:49.255Z,19.40
2017-05-24T23:20:18.579Z,19.20
2017-05-24T23:22:47.604Z,19.10
2017-05-24T23:25:16.639Z,19.20
2017-05-24T23:27:45.677Z,19.10
2017-05-24T23:30:14.715Z,19.10
2017-05-24T23:32:43.734Z,19.10
2017-05-24T23:35:12.760Z,19.00
2017-05-24T23:37:41.802Z,19.00
2017-05-24T23:40:10.812Z,18.90
2017-05-24T23:42:39.840Z,18.80
2017-05-24T23:45:08.859Z,18.90
2017-05-24T23:47:37.892Z,18.90
2017-05-24T23:50:06.926Z,18.80
2017-05-24T23:52:35.962Z,18.80
2017-05-24T23:55:04.980Z,18.80
2017-05-24T23:57:34.027Z,18.80
